createdAt,value
2019-03-20T00:00:03.247Z,11.07
2019-03-20T00:03:07.217Z,9.90
2019-03-20T00:06:11.055Z,11.77
2019-03-20T00:09:15.206Z,8.30
2019-03-20T00:12:19.050Z,12.67
2019-03-20T00:15:22.879Z,8.70
2019-03-20T00:18:26.674Z,7.40
2019-03-20T00:21:30.477Z,11.90
2019-03-20T00:24:34.306Z,10.23
2019-03-20T00:27:38.169Z,8.83
2019-03-20T00:30:42.132Z,12.03
2019-03-20T00:33:46.071Z,10.43
2019-03-20T00:36:49.884Z,13.37
2019-03-20T00:39:53.726Z,15.33
2019-03-20T00:42:57.532Z,15.40
2019-03-20T00:46:01.431Z,11.37
2019-03-20T00:49:05.362Z,9.93
2019-03-20T00:52:09.182Z,11.13
2019-03-20T00:55:13.228Z,12.23
2019-03-20T00:58:17.120Z,12.00
2019-03-20T01:01:21.093Z,12.00
2019-03-20T01:04:25.028Z,7.63
2019-03-20T01:07:28.817Z,12.73
2019-03-20T01:10:32.732Z,13.10
2019-03-20T01:13:36.580Z,8.43
2019-03-20T01:16:40.522Z,11.70
2019-03-20T01:19:44.473Z,10.90
2019-03-20T01:22:48.423Z,12.87
2019-03-20T01:25:52.340Z,9.13
2019-03-20T01:28:56.371Z,12.37
2019-03-20T01:32:00.274Z,10.73
2019-03-20T01:35:04.569Z,13.70
2019-03-20T01:38:08.979Z,18.83
2019-03-20T01:41:12.797Z,10.17
2019-03-20T01:44:16.675Z,10.37
2019-03-20T01:47:20.500Z,8.13
2019-03-20T01:50:24.429Z,11.23
2019-03-20T01:53:28.310Z,17.40
2019-03-20T01:56:32.149Z,11.33
2019-03-20T01:59:36.042Z,15.47
2019-03-20T02:02:39.954Z,8.13
2019-03-20T02:05:43.828Z,13.07
2019-03-20T02:08:47.686Z,9.83
2019-03-20T02:11:51.509Z,12.60
2019-03-20T02:14:55.345Z,14.07
2019-03-20T02:17:59.241Z,10.23
2019-03-20T02:21:03.337Z,8.53
2019-03-20T02:24:07.326Z,9.23
2019-03-20T02:27:11.214Z,8.97
2019-03-20T02:30:16.559Z,14.07
2019-03-20T02:33:20.432Z,10.47
2019-03-20T02:36:24.251Z,10.47
2019-03-20T02:39:28.165Z,10.73
2019-03-20T02:42:31.982Z,14.07
2019-03-20T02:45:35.927Z,7.27
2019-03-20T02:48:39.733Z,9.97
2019-03-20T02:51:43.594Z,8.13
2019-03-20T02:54:47.428Z,10.20
2019-03-20T02:57:51.298Z,8.57
2019-03-20T03:00:55.096Z,9.50
2019-03-20T03:03:58.892Z,12.03
2019-03-20T03:07:02.770Z,9.20
2019-03-20T03:10:07.037Z,10.47
2019-03-20T03:13:10.925Z,5.73
2019-03-20T03:16:14.732Z,13.17
2019-03-20T03:19:18.565Z,12.27
2019-03-20T03:22:22.426Z,10.00
2019-03-20T03:25:26.165Z,9.33
2019-03-20T03:28:29.973Z,10.80
2019-03-20T03:31:33.801Z,14.43
2019-03-20T03:34:37.591Z,10.60
2019-03-20T03:37:41.423Z,11.57
2019-03-20T03:40:45.356Z,13.43
2019-03-20T03:43:49.189Z,10.67
2019-03-20T03:46:52.985Z,11.53
2019-03-20T03:49:56.880Z,11.90
2019-03-20T03:53:00.697Z,11.37
2019-03-20T03:56:04.493Z,9.30
2019-03-20T03:59:08.433Z,9.07
2019-03-20T04:02:12.221Z,18.27
2019-03-20T04:05:16.125Z,16.40
2019-03-20T04:08:20.132Z,12.07
2019-03-20T04:11:24.006Z,20.07
2019-03-20T04:14:27.796Z,12.43
2019-03-20T04:17:31.592Z,15.23
2019-03-20T04:20:35.411Z,16.67
2019-03-20T04:23:39.236Z,16.13
2019-03-20T04:26:43.078Z,20.93
2019-03-20T04:29:46.908Z,18.63
2019-03-20T04:32:50.717Z,20.27
2019-03-20T04:35:54.637Z,20.50
2019-03-20T04:38:58.465Z,25.23
2019-03-20T04:42:02.275Z,19.87
2019-03-20T04:45:06.620Z,19.93
2019-03-20T04:48:10.527Z,19.83
2019-03-20T04:51:14.365Z,16.70
2019-03-20T04:54:18.158Z,23.10
2019-03-20T04:57:22.068Z,26.43
2019-03-20T05:00:25.893Z,28.63
2019-03-20T05:03:29.786Z,29.67
2019-03-20T05:06:33.574Z,37.27
2019-03-20T05:09:37.413Z,36.00
2019-03-20T05:12:41.302Z,36.13
2019-03-20T05:15:45.163Z,42.47
2019-03-20T05:18:48.984Z,35.70
2019-03-20T05:21:52.806Z,40.27
2019-03-20T05:24:56.625Z,42.27
2019-03-20T05:28:00.462Z,44.97
2019-03-20T05:31:04.373Z,48.37
2019-03-20T05:34:08.201Z,52.47
2019-03-20T05:37:12.043Z,44.03
2019-03-20T05:40:16.011Z,47.17
2019-03-20T05:43:19.849Z,45.30
2019-03-20T05:46:23.680Z,41.73
2019-03-20T05:49:27.495Z,39.10
2019-03-20T05:52:31.320Z,38.87
2019-03-20T05:55:35.158Z,43.27
2019-03-20T05:58:38.957Z,45.73
2019-03-20T06:01:42.779Z,40.43
2019-03-20T06:04:46.610Z,45.67
2019-03-20T06:07:50.435Z,49.37
2019-03-20T06:10:54.226Z,53.90
2019-03-20T06:13:58.041Z,45.37
2019-03-20T06:17:01.866Z,50.93
2019-03-20T06:20:05.942Z,55.50
2019-03-20T06:23:11.234Z,53.47
2019-03-20T06:26:15.159Z,48.53
2019-03-20T06:29:20.169Z,50.27
2019-03-20T06:32:24.067Z,47.53
2019-03-20T06:35:27.876Z,52.30
2019-03-20T06:38:31.682Z,61.57
2019-03-20T06:41:35.493Z,46.73
2019-03-20T06:44:39.288Z,44.67
2019-03-20T06:47:43.178Z,43.80
2019-03-20T06:50:46.983Z,47.57
2019-03-20T06:53:50.843Z,47.57
2019-03-20T06:56:54.733Z,48.20
2019-03-20T07:00:26.038Z,48.70
2019-03-20T07:04:03.138Z,53.53
2019-03-20T07:07:11.065Z,57.97
2019-03-20T07:10:35.288Z,52.83
2019-03-20T07:13:39.098Z,59.53
2019-03-20T07:16:42.945Z,56.23
2019-03-20T07:19:46.763Z,68.03
2019-03-20T07:22:50.581Z,70.60
2019-03-20T07:25:54.408Z,67.93
2019-03-20T07:28:58.298Z,71.10
2019-03-20T07:32:02.197Z,74.40
2019-03-20T07:35:06.210Z,84.30
2019-03-20T07:38:10.019Z,80.37
2019-03-20T07:41:13.863Z,92.97
2019-03-20T07:44:17.685Z,88.97
2019-03-20T07:47:21.493Z,82.73
2019-03-20T07:50:25.283Z,80.00
2019-03-20T07:53:29.111Z,89.13
2019-03-20T07:56:32.944Z,85.03
2019-03-20T07:59:36.744Z,83.70
2019-03-20T08:02:40.554Z,86.63
2019-03-20T08:05:44.439Z,84.77
2019-03-20T08:08:48.339Z,97.27
2019-03-20T08:11:52.122Z,91.87
2019-03-20T08:14:55.944Z,90.33
2019-03-20T08:17:59.753Z,97.83
2019-03-20T08:21:03.583Z,105.83
2019-03-20T08:24:07.393Z,108.37
2019-03-20T08:27:11.197Z,109.97
2019-03-20T08:30:15.579Z,123.33
2019-03-20T08:33:19.466Z,123.87
2019-03-20T08:36:23.317Z,117.07
2019-03-20T08:39:27.124Z,114.03
2019-03-20T08:42:30.939Z,102.97
2019-03-20T08:45:34.853Z,103.17
2019-03-20T08:48:38.740Z,124.20
2019-03-20T08:51:42.597Z,116.37
2019-03-20T08:54:46.413Z,131.37
2019-03-20T08:57:50.490Z,137.73
2019-03-20T09:00:54.442Z,121.07
2019-03-20T09:03:58.287Z,135.20
2019-03-20T09:07:02.148Z,134.63
2019-03-20T09:10:07.830Z,111.47
2019-03-20T09:13:11.753Z,153.27
2019-03-20T09:16:15.612Z,148.93
2019-03-20T09:19:19.492Z,157.03
2019-03-20T09:22:23.373Z,171.33
2019-03-20T09:25:27.271Z,178.67
2019-03-20T09:28:31.068Z,174.10
2019-03-20T09:31:34.888Z,180.60
2019-03-20T09:34:38.712Z,184.13
2019-03-20T09:37:51.187Z,188.27
2019-03-20T09:40:48.320Z,197.77
2019-03-20T09:43:52.121Z,182.10
2019-03-20T09:46:55.972Z,172.30
2019-03-20T09:49:59.809Z,188.60
2019-03-20T09:53:03.652Z,181.50
2019-03-20T09:56:07.467Z,165.43
2019-03-20T09:59:11.314Z,186.70
2019-03-20T10:02:15.168Z,160.37
2019-03-20T10:05:19.434Z,179.53
2019-03-20T10:08:23.256Z,269.47
2019-03-20T10:11:27.075Z,220.43
2019-03-20T10:14:30.988Z,255.20
2019-03-20T10:17:34.820Z,329.30
2019-03-20T10:20:38.658Z,224.87
2019-03-20T10:23:42.596Z,509.47
2019-03-20T10:26:46.411Z,235.40
2019-03-20T10:29:50.220Z,213.77
2019-03-20T10:32:54.165Z,198.23
2019-03-20T10:35:57.991Z,180.60
2019-03-20T10:39:06.761Z,211.47
2019-03-20T10:42:07.823Z,198.87
2019-03-20T10:45:12.628Z,179.00
2019-03-20T10:48:16.566Z,199.03
2019-03-20T10:51:20.409Z,144.40
2019-03-20T10:54:24.247Z,151.83
2019-03-20T10:57:28.096Z,186.03
2019-03-20T11:00:31.993Z,170.13
2019-03-20T11:03:35.949Z,137.03
2019-03-20T11:06:39.748Z,150.20
2019-03-20T11:09:43.723Z,138.33
2019-03-20T11:12:47.588Z,209.67
2019-03-20T11:15:51.518Z,125.63
2019-03-20T11:18:55.328Z,168.13
2019-03-20T11:21:59.237Z,188.17
2019-03-20T11:25:03.177Z,147.07
2019-03-20T11:28:06.982Z,151.80
2019-03-20T11:31:10.801Z,181.40
2019-03-20T11:34:14.651Z,138.10
2019-03-20T11:37:18.505Z,128.57
2019-03-20T11:40:27.370Z,125.60
2019-03-20T11:43:33.625Z,154.20
2019-03-20T11:46:37.567Z,135.23
2019-03-20T11:49:41.439Z,154.67
2019-03-20T11:52:45.360Z,163.70
2019-03-20T11:55:49.298Z,108.07
2019-03-20T11:58:53.130Z,235.20
2019-03-20T12:01:57.050Z,136.10
2019-03-20T12:05:00.934Z,107.50
2019-03-20T12:08:05.371Z,309.47
2019-03-20T12:11:09.314Z,270.67
2019-03-20T12:14:13.116Z,125.83
2019-03-20T12:17:16.961Z,232.67
2019-03-20T12:20:20.995Z,185.47
2019-03-20T12:23:24.907Z,213.27
2019-03-20T12:26:28.814Z,276.70
2019-03-20T12:29:32.772Z,152.93
2019-03-20T12:32:36.624Z,312.73
2019-03-20T12:35:40.609Z,211.63
2019-03-20T12:38:44.474Z,152.00
2019-03-20T12:41:48.341Z,161.47
2019-03-20T12:44:52.175Z,168.17
2019-03-20T12:47:56.034Z,89.77
2019-03-20T12:50:59.871Z,125.00
2019-03-20T12:54:03.798Z,196.80
2019-03-20T12:57:07.638Z,114.13
2019-03-20T13:00:14.580Z,117.30
2019-03-20T13:03:19.310Z,112.97
2019-03-20T13:06:23.190Z,69.70
2019-03-20T13:09:27.092Z,68.67
2019-03-20T13:12:30.921Z,72.77
2019-03-20T13:15:34.748Z,123.67
2019-03-20T13:18:38.614Z,52.80
2019-03-20T13:21:42.505Z,57.73
2019-03-20T13:24:46.394Z,46.17
2019-03-20T13:27:50.372Z,45.77
2019-03-20T13:31:00.284Z,53.77
2019-03-20T13:34:04.313Z,56.77
2019-03-20T13:37:08.265Z,162.27
2019-03-20T13:40:14.605Z,157.70
2019-03-20T13:43:17.890Z,336.77
2019-03-20T13:46:21.709Z,158.83
2019-03-20T13:49:25.583Z,139.83
2019-03-20T13:52:29.469Z,92.70
2019-03-20T13:55:33.280Z,76.90
2019-03-20T13:58:37.108Z,78.67
2019-03-20T14:01:40.995Z,75.13
2019-03-20T14:04:44.806Z,119.03
2019-03-20T14:07:48.878Z,77.30
2019-03-20T14:10:52.761Z,77.27
2019-03-20T14:13:56.629Z,64.73
2019-03-20T14:17:00.459Z,56.90
2019-03-20T14:20:04.608Z,70.00
2019-03-20T14:23:08.457Z,66.23
2019-03-20T14:26:12.468Z,90.87
2019-03-20T14:29:16.319Z,133.80
2019-03-20T14:32:20.159Z,64.30
2019-03-20T14:35:24.186Z,74.67
2019-03-20T14:38:28.014Z,61.20
2019-03-20T14:41:31.865Z,94.07
2019-03-20T14:44:35.686Z,133.50
2019-03-20T14:47:42.212Z,80.17
2019-03-20T14:50:45.058Z,104.93
2019-03-20T14:53:48.894Z,65.80
2019-03-20T14:56:52.776Z,636.77
2019-03-20T14:59:56.593Z,75.43
2019-03-20T15:03:00.570Z,81.63
2019-03-20T15:06:04.578Z,276.40
2019-03-20T15:09:09.581Z,248.67
2019-03-20T15:12:13.547Z,233.73
2019-03-20T15:15:35.236Z,206.70
2019-03-20T15:18:39.197Z,79.63
2019-03-20T15:21:43.043Z,222.17
2019-03-20T15:24:46.932Z,131.27
2019-03-20T15:27:50.764Z,167.33
2019-03-20T15:30:54.630Z,100.77
2019-03-20T15:33:58.483Z,74.80
2019-03-20T15:37:02.297Z,237.50
2019-03-20T15:40:07.912Z,91.73
2019-03-20T15:43:11.728Z,54.03
2019-03-20T15:46:15.549Z,51.90
2019-03-20T15:49:19.347Z,67.43
2019-03-20T15:52:23.147Z,36.03
2019-03-20T15:55:28.777Z,31.53
2019-03-20T15:58:32.575Z,43.47
2019-03-20T16:01:36.376Z,48.57
2019-03-20T16:04:40.267Z,54.40
2019-03-20T16:07:44.236Z,64.10
2019-03-20T16:10:48.012Z,52.53
2019-03-20T16:13:51.889Z,60.57
2019-03-20T16:16:55.697Z,45.03
2019-03-20T16:19:59.506Z,51.47
2019-03-20T16:23:03.421Z,74.70
2019-03-20T16:26:07.227Z,46.97
2019-03-20T16:29:11.029Z,82.23
2019-03-20T16:32:14.911Z,43.57
2019-03-20T16:35:21.361Z,40.43
2019-03-20T16:38:25.151Z,37.50
2019-03-20T16:41:28.965Z,43.03
2019-03-20T16:44:32.787Z,41.63
2019-03-20T16:47:36.611Z,57.30
2019-03-20T16:50:40.429Z,46.17
2019-03-20T16:53:44.300Z,41.13
2019-03-20T16:56:48.123Z,43.80
2019-03-20T16:59:51.944Z,46.17
2019-03-20T17:02:55.911Z,32.27
2019-03-20T17:05:59.729Z,55.87
2019-03-20T17:09:04.125Z,63.90
2019-03-20T17:12:08.007Z,56.43
2019-03-20T17:15:18.133Z,47.53
2019-03-20T17:18:21.962Z,83.03
2019-03-20T17:21:25.760Z,60.97
2019-03-20T17:24:29.560Z,54.50
2019-03-20T17:27:33.370Z,54.17
2019-03-20T17:30:37.477Z,59.80
2019-03-20T17:33:41.273Z,41.80
2019-03-20T17:36:45.117Z,35.03
2019-03-20T17:39:49.284Z,50.17
2019-03-20T17:42:53.159Z,68.43
2019-03-20T17:45:57.109Z,39.67
2019-03-20T17:49:00.942Z,44.07
2019-03-20T17:52:04.819Z,50.63
2019-03-20T17:55:08.848Z,40.13
2019-03-20T17:58:12.647Z,45.80
2019-03-20T18:01:16.591Z,46.40
2019-03-20T18:04:20.411Z,37.77
2019-03-20T18:07:24.229Z,65.80
2019-03-20T18:10:28.205Z,45.27
2019-03-20T18:13:32.100Z,34.77
2019-03-20T18:20:30.270Z,38.63
2019-03-20T18:23:34.103Z,114.80
2019-03-20T18:26:42.824Z,42.23
2019-03-20T18:29:46.667Z,50.93
2019-03-20T18:32:50.564Z,50.97
2019-03-20T18:35:54.485Z,49.80
2019-03-20T18:38:58.313Z,54.77
2019-03-20T18:42:02.120Z,51.60
2019-03-20T18:45:06.496Z,48.90
2019-03-20T18:48:10.325Z,54.00
2019-03-20T18:51:14.140Z,54.70
2019-03-20T18:54:17.985Z,48.53
2019-03-20T18:57:21.836Z,54.73
2019-03-20T19:00:26.059Z,54.73
2019-03-20T19:03:29.983Z,62.17
2019-03-20T19:06:33.802Z,70.87
2019-03-20T19:09:37.614Z,70.60
2019-03-20T19:12:41.493Z,54.40
2019-03-20T19:15:45.493Z,52.20
2019-03-20T19:18:49.365Z,45.13
2019-03-20T19:21:53.210Z,53.37
2019-03-20T19:24:57.076Z,44.40
2019-03-20T19:28:00.875Z,52.00
2019-03-20T19:31:04.846Z,51.27
2019-03-20T19:34:08.665Z,45.77
2019-03-20T19:37:12.488Z,55.33
2019-03-20T19:40:16.459Z,57.83
2019-03-20T19:43:22.676Z,59.73
2019-03-20T19:46:25.814Z,58.27
2019-03-20T19:49:29.624Z,61.40
2019-03-20T19:52:33.445Z,68.77
2019-03-20T19:55:37.531Z,65.17
2019-03-20T19:58:41.380Z,88.07
2019-03-20T20:01:45.194Z,70.37
2019-03-20T20:04:48.981Z,84.47
2019-03-20T20:07:52.864Z,63.53
2019-03-20T20:10:56.687Z,74.60
2019-03-20T20:14:00.508Z,78.90
2019-03-20T20:17:04.337Z,73.33
2019-03-20T20:20:10.652Z,87.57
2019-03-20T20:23:14.467Z,76.00
2019-03-20T20:26:18.297Z,85.50
2019-03-20T20:29:22.094Z,94.53
2019-03-20T20:32:25.942Z,100.63
2019-03-20T20:35:29.842Z,95.60
2019-03-20T20:38:33.646Z,87.63
2019-03-20T20:41:37.480Z,113.47
2019-03-20T20:44:41.299Z,96.97
2019-03-20T20:47:45.171Z,94.13
2019-03-20T20:50:48.988Z,87.67
2019-03-20T20:53:52.811Z,88.20
2019-03-20T20:56:56.644Z,96.30
2019-03-20T21:00:00.573Z,112.00
2019-03-20T21:03:04.475Z,130.93
2019-03-20T21:06:08.297Z,85.30
2019-03-20T21:09:12.206Z,89.53
2019-03-20T21:12:16.021Z,83.50
2019-03-20T21:15:34.277Z,92.13
2019-03-20T21:19:17.348Z,117.17
2019-03-20T21:23:01.243Z,101.43
2019-03-20T21:26:05.783Z,85.83
2019-03-20T21:29:37.208Z,106.90
2019-03-20T21:32:42.745Z,104.30
2019-03-20T21:36:22.146Z,103.57
2019-03-20T21:39:26.531Z,113.37
2019-03-20T21:43:19.645Z,110.30
2019-03-20T21:46:50.517Z,111.60
2019-03-20T21:49:54.877Z,86.27
2019-03-20T21:52:59.256Z,119.00
2019-03-20T21:56:31.343Z,118.40
2019-03-20T22:00:19.488Z,104.90
2019-03-20T22:03:23.852Z,103.37
2019-03-20T22:07:03.854Z,119.57
2019-03-20T22:10:58.454Z,151.37
2019-03-20T22:14:07.472Z,125.80
2019-03-20T22:17:51.223Z,131.40
2019-03-20T22:21:14.497Z,113.60
2019-03-20T22:24:58.343Z,110.07
2019-03-20T22:28:57.059Z,122.07
2019-03-20T22:32:43.977Z,110.53
2019-03-20T22:36:01.190Z,111.53
2019-03-20T22:39:42.076Z,102.33
2019-03-20T22:42:50.974Z,114.67
2019-03-20T22:46:35.088Z,110.90
2019-03-20T22:50:26.078Z,114.70
2019-03-20T22:54:23.342Z,106.93
2019-03-20T22:57:47.500Z,116.77
2019-03-20T23:00:52.313Z,110.07
2019-03-20T23:04:01.412Z,103.77
2019-03-20T23:07:05.918Z,94.77
2019-03-20T23:10:12.870Z,86.40
2019-03-20T23:13:19.180Z,91.00
2019-03-20T23:16:23.317Z,80.83
2019-03-20T23:19:27.668Z,86.07
2019-03-20T23:22:32.066Z,90.00
2019-03-20T23:25:36.423Z,92.17
2019-03-20T23:28:41.549Z,90.67
2019-03-20T23:31:46.007Z,85.13
2019-03-20T23:34:50.361Z,78.93
2019-03-20T23:37:54.726Z,90.57
2019-03-20T23:40:59.108Z,95.13
2019-03-20T23:44:03.542Z,85.90
2019-03-20T23:47:07.917Z,101.03
2019-03-20T23:50:12.297Z,95.50
2019-03-20T23:53:16.663Z,98.57
2019-03-20T23:56:21.201Z,100.80
2019-03-20T23:59:25.569Z,97.63
